createdAt,value
2019-04-07T00:00:07.817Z,53.400002
2019-04-07T00:00:23.863Z,53.400002
2019-04-07T00:00:39.911Z,61.200001
2019-04-07T00:00:55.882Z,61.200001
2019-04-07T00:01:11.898Z,67.400002
2019-04-07T00:01:27.970Z,67.400002
2019-04-07T00:01:43.947Z,67.400002
2019-04-07T00:01:59.948Z,67.400002
2019-04-07T00:02:15.917Z,67.400002
2019-04-07T00:02:31.962Z,67.400002
2019-04-07T00:02:48.073Z,67.400002
2019-04-07T00:03:04.112Z,67.400002
2019-04-07T00:03:20.140Z,67.400002
2019-04-07T00:03:36.206Z,67.400002
2019-04-07T00:03:52.174Z,67.400002
2019-04-07T00:04:08.210Z,67.400002
2019-04-07T00:04:24.271Z,67.400002
2019-04-07T00:04:40.334Z,67.400002
2019-04-07T00:04:56.226Z,67.400002
2019-04-07T00:05:20.087Z,67.400002
2019-04-07T00:05:35.138Z,56.900002
2019-04-07T00:05:51.152Z,56.900002
2019-04-07T00:06:07.013Z,56.900002
2019-04-07T00:06:22.999Z,56.900002
2019-04-07T00:06:38.957Z,56.900002
2019-04-07T00:06:54.909Z,54.900002
2019-04-07T00:07:10.887Z,54.900002
2019-04-07T00:07:26.870Z,54.900002
2019-04-07T00:07:41.825Z,54.900002
2019-04-07T00:07:58.005Z,59.599998
2019-04-07T00:08:14.035Z,59.599998
2019-04-07T00:08:30.168Z,59.599998
2019-04-07T00:08:47.072Z,59.599998
2019-04-07T00:09:03.280Z,59.599998
2019-04-07T00:09:19.357Z,59.599998
2019-04-07T00:09:36.033Z,59.599998
2019-04-07T00:09:53.133Z,59.599998
2019-04-07T00:10:11.590Z,59.599998
2019-04-07T00:10:27.631Z,59.599998
2019-04-07T00:10:44.107Z,59.599998
2019-04-07T00:11:01.848Z,59.599998
2019-04-07T00:11:18.446Z,59.599998
2019-04-07T00:11:35.177Z,59.599998
2019-04-07T00:11:52.417Z,59.599998
2019-04-07T00:12:09.923Z,59.599998
2019-04-07T00:12:28.244Z,59.599998
2019-04-07T00:12:47.082Z,59.599998
2019-04-07T00:13:09.482Z,59.599998
2019-04-07T00:13:29.926Z,59.599998
2019-04-07T00:13:48.849Z,59.599998
2019-04-07T00:14:09.922Z,59.599998
2019-04-07T00:14:28.808Z,59.599998
2019-04-07T00:14:47.582Z,59.599998
2019-04-07T00:15:07.582Z,59.599998
2019-04-07T00:15:24.759Z,59.599998
2019-04-07T00:15:42.220Z,59.599998
2019-04-07T00:16:00.786Z,59.599998
2019-04-07T00:16:17.407Z,59.599998
2019-04-07T00:16:36.162Z,59.599998
2019-04-07T00:16:52.611Z,59.599998
2019-04-07T00:17:11.097Z,59.599998
2019-04-07T00:17:27.998Z,59.599998
2019-04-07T00:17:46.519Z,59.599998
2019-04-07T00:18:03.889Z,59.599998
2019-04-07T00:18:21.192Z,59.599998
2019-04-07T00:18:40.530Z,59.599998
2019-04-07T00:18:57.348Z,59.599998
2019-04-07T00:19:14.453Z,59.599998
2019-04-07T00:19:31.121Z,59.599998
2019-04-07T00:19:47.619Z,59.599998
2019-04-07T00:20:06.035Z,59.599998
2019-04-07T00:20:22.570Z,59.599998
2019-04-07T00:20:40.978Z,59.599998
2019-04-07T00:20:57.342Z,59.599998
2019-04-07T00:21:14.115Z,59.599998
2019-04-07T00:21:32.107Z,59.599998
2019-04-07T00:21:52.898Z,59.599998
2019-04-07T00:22:12.279Z,59.599998
2019-04-07T00:22:34.083Z,59.599998
2019-04-07T00:22:54.083Z,59.599998
2019-04-07T00:23:13.650Z,59.599998
2019-04-07T00:23:32.485Z,59.599998
2019-04-07T00:23:54.997Z,59.599998
2019-04-07T00:24:16.108Z,59.599998
2019-04-07T00:24:38.168Z,59.599998
2019-04-07T00:25:01.221Z,59.599998
2019-04-07T00:25:22.029Z,59.599998
2019-04-07T00:25:40.364Z,52.900002
2019-04-07T00:26:01.061Z,52.900002
2019-04-07T00:26:22.067Z,52.900002
2019-04-07T00:26:43.660Z,62.400002
2019-04-07T00:27:03.060Z,62.400002
2019-04-07T00:27:21.802Z,66.900002
2019-04-07T00:27:42.662Z,66.900002
2019-04-07T00:28:01.377Z,66.900002
2019-04-07T00:28:20.027Z,66.900002
2019-04-07T00:28:42.632Z,66.900002
2019-04-07T00:29:00.505Z,66.900002
2019-04-07T00:29:21.056Z,66.900002
2019-04-07T00:29:38.353Z,66.900002
2019-04-07T00:29:58.832Z,66.900002
2019-04-07T00:30:18.516Z,66.900002
2019-04-07T00:30:38.902Z,66.900002
2019-04-07T00:31:01.260Z,66.900002
2019-04-07T00:31:21.090Z,66.900002
2019-04-07T00:31:40.374Z,73.5
2019-04-07T00:32:03.034Z,73.5
2019-04-07T00:32:23.887Z,69.800003
2019-04-07T00:32:44.817Z,69.800003
2019-04-07T00:33:02.468Z,69.800003
2019-04-07T00:33:24.484Z,69.800003
2019-04-07T00:33:44.250Z,69.800003
2019-04-07T00:34:02.325Z,69.800003
2019-04-07T00:34:21.034Z,69.800003
2019-04-07T00:34:38.639Z,69.800003
2019-04-07T00:34:55.740Z,69.800003
2019-04-07T00:35:44.084Z,69.800003
2019-04-07T00:35:59.722Z,57
2019-04-07T00:36:20.039Z,57
2019-04-07T00:36:36.729Z,57
2019-04-07T00:36:56.161Z,57
2019-04-07T00:37:14.463Z,57
2019-04-07T00:37:29.973Z,57
2019-04-07T00:37:45.511Z,57
2019-04-07T00:38:01.023Z,57
2019-04-07T00:38:16.564Z,57
2019-04-07T00:38:32.085Z,57
2019-04-07T00:38:47.679Z,80.599998
2019-04-07T00:39:03.159Z,80.599998
2019-04-07T00:39:19.605Z,80.599998
2019-04-07T00:39:35.040Z,80.599998
2019-04-07T00:39:50.441Z,80.599998
2019-04-07T00:40:05.860Z,80.599998
2019-04-07T00:40:21.257Z,80.599998
2019-04-07T00:40:37.539Z,80.599998
2019-04-07T00:40:52.928Z,61.900002
2019-04-07T00:41:08.339Z,61.900002
2019-04-07T00:41:23.705Z,61.900002
2019-04-07T00:41:39.115Z,61.900002
2019-04-07T00:41:55.516Z,61.900002
2019-04-07T00:42:10.947Z,61.900002
2019-04-07T00:42:26.340Z,61.900002
2019-04-07T00:42:41.767Z,61.900002
2019-04-07T00:42:57.160Z,61.900002
2019-04-07T00:43:12.558Z,61.900002
2019-04-07T00:43:27.941Z,61.900002
2019-04-07T00:43:43.371Z,61.900002
2019-04-07T00:43:58.765Z,61.900002
2019-04-07T00:44:16.178Z,61.900002
2019-04-07T00:44:31.625Z,61.900002
2019-04-07T00:44:47.002Z,61.900002
2019-04-07T00:45:02.407Z,61.900002
2019-04-07T00:45:17.824Z,61.900002
2019-04-07T00:45:34.279Z,61.900002
2019-04-07T00:45:49.687Z,61.900002
2019-04-07T00:46:05.063Z,61.900002
2019-04-07T00:46:20.601Z,61.900002
2019-04-07T00:46:35.974Z,61.900002
2019-04-07T00:46:51.402Z,61.900002
2019-04-07T00:47:06.801Z,61.900002
2019-04-07T00:47:22.259Z,61.900002
2019-04-07T00:47:37.671Z,61.900002
2019-04-07T00:47:53.089Z,61.900002
2019-04-07T00:48:09.496Z,61.900002
2019-04-07T00:48:24.851Z,61.900002
2019-04-07T00:48:41.241Z,61.900002
2019-04-07T00:48:56.636Z,61.900002
2019-04-07T00:49:12.074Z,61.900002
2019-04-07T00:49:28.479Z,61.900002
2019-04-07T00:49:43.886Z,61.900002
2019-04-07T00:50:00.293Z,61.900002
2019-04-07T00:50:15.682Z,61.900002
2019-04-07T00:50:32.115Z,61.900002
2019-04-07T00:50:47.528Z,61.900002
2019-04-07T00:51:03.956Z,61.900002
2019-04-07T00:51:19.378Z,61.900002
2019-04-07T00:51:34.765Z,61.900002
2019-04-07T00:51:50.188Z,61.900002
2019-04-07T00:52:06.584Z,61.900002
2019-04-07T00:52:21.014Z,49.099998
2019-04-07T00:52:36.441Z,49.099998
2019-04-07T00:52:51.829Z,49.099998
2019-04-07T00:53:08.211Z,49.099998
2019-04-07T00:53:22.608Z,57.200001
2019-04-07T00:53:38.099Z,57.200001
2019-04-07T00:53:53.468Z,57.200001
2019-04-07T00:54:08.844Z,57.200001
2019-04-07T00:54:24.211Z,57.200001
2019-04-07T00:54:39.642Z,57.200001
2019-04-07T00:54:55.003Z,57.200001
2019-04-07T00:55:10.394Z,57.200001
2019-04-07T00:55:25.815Z,57.200001
2019-04-07T00:55:41.249Z,57.200001
2019-04-07T00:55:56.650Z,57.200001
2019-04-07T00:56:12.005Z,57.200001
2019-04-07T00:56:27.410Z,57.200001
2019-04-07T00:56:42.793Z,57.200001
2019-04-07T00:56:58.221Z,57.200001
2019-04-07T00:57:13.594Z,57.200001
2019-04-07T00:57:29.052Z,57.200001
2019-04-07T00:57:44.477Z,57.200001
2019-04-07T00:57:59.884Z,57.200001
2019-04-07T00:58:15.283Z,57.200001
2019-04-07T00:58:30.666Z,57.200001
2019-04-07T00:58:46.123Z,57.200001
2019-04-07T00:59:01.561Z,57.200001
2019-04-07T00:59:17.011Z,57.200001
2019-04-07T00:59:32.405Z,57.700001
2019-04-07T00:59:47.784Z,57.700001
2019-04-07T01:00:03.222Z,58.700001
2019-04-07T01:00:20.736Z,58.700001
2019-04-07T01:00:36.145Z,58.700001
2019-04-07T01:00:52.528Z,58.700001
2019-04-07T01:01:07.929Z,58.700001
2019-04-07T01:01:23.353Z,51.099998
2019-04-07T01:01:38.706Z,51.099998
2019-04-07T01:01:54.113Z,56.5
2019-04-07T01:02:09.498Z,56.5
2019-04-07T01:02:24.892Z,56.5
2019-04-07T01:02:40.240Z,59.400002
2019-04-07T01:02:55.631Z,59.400002
2019-04-07T01:03:11.050Z,59.400002
2019-04-07T01:03:26.428Z,59.400002
2019-04-07T01:03:41.834Z,59.400002
2019-04-07T01:03:57.251Z,59.400002
2019-04-07T01:04:12.631Z,59.400002
2019-04-07T01:04:28.016Z,59.400002
2019-04-07T01:04:43.399Z,59.400002
2019-04-07T01:04:58.813Z,59.400002
2019-04-07T01:05:14.216Z,59.400002
2019-04-07T01:05:39.707Z,59.400002
2019-04-07T01:05:54.911Z,59.400002
2019-04-07T01:06:10.274Z,53.700001
2019-04-07T01:06:25.658Z,53.700001
2019-04-07T01:06:41.031Z,53.700001
2019-04-07T01:06:56.407Z,53.200001
2019-04-07T01:07:11.777Z,53.200001
2019-04-07T01:07:27.184Z,53.599998
2019-04-07T01:07:42.537Z,53.599998
2019-04-07T01:07:57.933Z,53.599998
2019-04-07T01:08:14.374Z,58.900002
2019-04-07T01:08:29.850Z,58.900002
2019-04-07T01:08:45.218Z,58.900002
2019-04-07T01:09:00.646Z,58.900002
2019-04-07T01:09:16.057Z,58.900002
2019-04-07T01:09:31.444Z,58.900002
2019-04-07T01:09:46.832Z,58.900002
2019-04-07T01:10:02.370Z,58.900002
2019-04-07T01:10:17.834Z,58.900002
2019-04-07T01:10:34.249Z,58.900002
2019-04-07T01:10:49.642Z,58.900002
2019-04-07T01:11:05.057Z,58.900002
2019-04-07T01:11:20.433Z,58.900002
2019-04-07T01:11:35.829Z,58.900002
2019-04-07T01:11:51.208Z,58.900002
2019-04-07T01:12:06.584Z,58.900002
2019-04-07T01:12:21.945Z,58.900002
2019-04-07T01:12:37.342Z,58.900002
2019-04-07T01:12:52.726Z,58.900002
2019-04-07T01:13:08.095Z,42.700001
2019-04-07T01:13:23.516Z,42.700001
2019-04-07T01:13:38.948Z,42.700001
2019-04-07T01:13:54.355Z,37.299999
2019-04-07T01:14:09.755Z,37.299999
2019-04-07T01:14:25.130Z,51.700001
2019-04-07T01:14:40.549Z,51.700001
2019-04-07T01:14:55.956Z,51.700001
2019-04-07T01:15:11.344Z,52
2019-04-07T01:15:26.765Z,52
2019-04-07T01:15:42.187Z,50.799999
2019-04-07T01:15:57.568Z,50.799999
2019-04-07T01:16:13.509Z,50.799999
2019-04-07T01:16:28.934Z,50.799999
2019-04-07T01:16:44.433Z,50.799999
2019-04-07T01:16:59.852Z,50.799999
2019-04-07T01:17:15.267Z,50.799999
2019-04-07T01:17:30.672Z,50.799999
2019-04-07T01:17:46.087Z,50.799999
2019-04-07T01:18:01.518Z,50.799999
2019-04-07T01:18:16.921Z,50.799999
2019-04-07T01:18:34.311Z,50.799999
2019-04-07T01:18:50.720Z,50.799999
2019-04-07T01:19:06.123Z,50.799999
2019-04-07T01:19:21.586Z,50.799999
2019-04-07T01:19:36.994Z,50.799999
2019-04-07T01:19:52.388Z,50.799999
2019-04-07T01:20:07.811Z,50.799999
2019-04-07T01:20:23.205Z,50.799999
2019-04-07T01:20:45.643Z,50.799999
2019-04-07T01:21:01.043Z,50.799999
2019-04-07T01:21:16.493Z,50.799999
2019-04-07T01:21:31.875Z,50.799999
2019-04-07T01:21:47.285Z,50.799999
2019-04-07T01:22:02.717Z,50.799999
2019-04-07T01:22:18.109Z,50.799999
2019-04-07T01:22:33.531Z,50.799999
2019-04-07T01:22:48.933Z,50.799999
2019-04-07T01:23:04.312Z,50.799999
2019-04-07T01:23:19.719Z,50.799999
2019-04-07T01:23:35.168Z,50.799999
2019-04-07T01:23:50.587Z,50.799999
2019-04-07T01:24:06.023Z,50.799999
2019-04-07T01:24:21.417Z,50.799999
2019-04-07T01:24:36.786Z,50.799999
2019-04-07T01:24:52.179Z,48.799999
2019-04-07T01:25:07.607Z,48.799999
2019-04-07T01:25:22.986Z,48.799999
2019-04-07T01:25:38.356Z,51.900002
2019-04-07T01:25:54.714Z,51.900002
2019-04-07T01:26:10.063Z,50.900002
2019-04-07T01:26:25.448Z,50.200001
2019-04-07T01:26:40.877Z,50.200001
2019-04-07T01:26:56.260Z,58.900002
2019-04-07T01:27:11.957Z,58.900002
2019-04-07T01:27:27.368Z,58.900002
2019-04-07T01:27:42.761Z,58.900002
2019-04-07T01:27:58.162Z,58.900002
2019-04-07T01:28:13.572Z,58.900002
2019-04-07T01:28:29.028Z,58.900002
2019-04-07T01:28:44.455Z,58.900002
2019-04-07T01:29:01.841Z,58.900002
2019-04-07T01:29:17.268Z,58.900002
2019-04-07T01:29:33.599Z,58.900002
2019-04-07T01:29:48.010Z,63.5
2019-04-07T01:30:03.374Z,63.5
2019-04-07T01:30:18.727Z,63.5
2019-04-07T01:30:34.189Z,63.5
2019-04-07T01:30:50.560Z,63.5
2019-04-07T01:31:05.979Z,63.5
2019-04-07T01:31:21.363Z,54.200001
2019-04-07T01:31:36.772Z,54.200001
2019-04-07T01:31:52.132Z,56.599998
2019-04-07T01:32:07.531Z,56.599998
2019-04-07T01:32:22.895Z,56.599998
2019-04-07T01:32:38.289Z,59
2019-04-07T01:32:53.680Z,59
2019-04-07T01:33:09.077Z,48.799999
2019-04-07T01:33:25.085Z,49.599998
2019-04-07T01:33:40.454Z,49.599998
2019-04-07T01:33:55.853Z,49.599998
2019-04-07T01:34:12.260Z,49.599998
2019-04-07T01:34:27.701Z,49.599998
2019-04-07T01:34:43.097Z,49.599998
2019-04-07T01:34:58.538Z,49.599998
2019-04-07T01:35:13.907Z,49.599998
2019-04-07T01:35:29.266Z,49.599998
2019-04-07T01:35:53.564Z,49.599998
2019-04-07T01:36:09.941Z,49.599998
2019-04-07T01:36:25.304Z,67.5
2019-04-07T01:36:41.773Z,67.5
2019-04-07T01:36:57.147Z,67.5
2019-04-07T01:37:12.543Z,67.5
2019-04-07T01:37:27.906Z,67.5
2019-04-07T01:37:43.278Z,51.599998
2019-04-07T01:37:58.707Z,51.599998
2019-04-07T01:38:14.078Z,55.599998
2019-04-07T01:38:29.453Z,57.099998
2019-04-07T01:38:44.832Z,57.099998
2019-04-07T01:39:00.271Z,54.700001
2019-04-07T01:39:15.619Z,54.700001
2019-04-07T01:39:31.030Z,54.700001
2019-04-07T01:39:46.411Z,52.200001
2019-04-07T01:40:01.788Z,52.200001
2019-04-07T01:40:17.180Z,56.599998
2019-04-07T01:40:32.630Z,56.599998
2019-04-07T01:40:48.143Z,56.599998
2019-04-07T01:41:03.561Z,56.599998
2019-04-07T01:41:19.019Z,56.599998
2019-04-07T01:41:34.440Z,56.599998
2019-04-07T01:41:49.913Z,56.599998
2019-04-07T01:42:05.305Z,56.599998
2019-04-07T01:42:21.711Z,56.599998
2019-04-07T01:42:37.124Z,56.599998
2019-04-07T01:42:52.534Z,56.599998
2019-04-07T01:43:07.998Z,56.599998
2019-04-07T01:43:25.432Z,56.599998
2019-04-07T01:43:40.889Z,56.599998
2019-04-07T01:43:56.283Z,56.599998
2019-04-07T01:44:11.676Z,56.599998
2019-04-07T01:44:27.077Z,56.599998
2019-04-07T01:44:43.411Z,56.599998
2019-04-07T01:44:58.809Z,56.599998
2019-04-07T01:45:14.225Z,56.599998
2019-04-07T01:45:30.655Z,56.599998
2019-04-07T01:45:46.104Z,56.599998
2019-04-07T01:46:02.548Z,56.599998
2019-04-07T01:46:17.913Z,56.599998
2019-04-07T01:46:34.301Z,54.299999
2019-04-07T01:46:49.683Z,54.299999
2019-04-07T01:47:05.051Z,54.299999
2019-04-07T01:47:20.429Z,62.5
2019-04-07T01:47:35.821Z,62.5
2019-04-07T01:47:51.221Z,65.599998
2019-04-07T01:48:07.612Z,65.599998
2019-04-07T01:48:22.998Z,65.599998
2019-04-07T01:48:38.361Z,64.699997
2019-04-07T01:48:54.773Z,64.699997
2019-04-07T01:49:12.129Z,59.099998
2019-04-07T01:49:27.516Z,59.099998
2019-04-07T01:49:43.903Z,59.099998
2019-04-07T01:49:59.286Z,59.099998
2019-04-07T01:50:14.713Z,59.099998
2019-04-07T01:50:30.087Z,59.099998
2019-04-07T01:50:45.469Z,59.099998
2019-04-07T01:51:01.856Z,59.099998
2019-04-07T01:51:17.240Z,59.099998
2019-04-07T01:51:33.772Z,59.099998
2019-04-07T01:51:49.135Z,59.099998
2019-04-07T01:52:04.533Z,59.099998
2019-04-07T01:52:19.928Z,59.099998
2019-04-07T01:52:35.348Z,59.099998
2019-04-07T01:52:50.722Z,59.099998
2019-04-07T01:53:06.228Z,59.099998
2019-04-07T01:53:21.701Z,59.099998
2019-04-07T01:53:38.109Z,59.099998
2019-04-07T01:53:53.617Z,59.099998
2019-04-07T01:54:09.051Z,59.099998
2019-04-07T01:54:24.475Z,59.099998
2019-04-07T01:54:40.895Z,59.099998
2019-04-07T01:54:56.355Z,59.099998
2019-04-07T01:55:11.787Z,59.099998
2019-04-07T01:55:27.250Z,59.099998
2019-04-07T01:55:42.667Z,59.099998
2019-04-07T01:55:59.057Z,59.099998
2019-04-07T01:56:14.521Z,59.099998
2019-04-07T01:56:29.959Z,59.099998
2019-04-07T01:56:45.343Z,59.099998
2019-04-07T01:57:01.763Z,59.099998
2019-04-07T01:57:17.234Z,59.099998
2019-04-07T01:57:32.672Z,59.099998
2019-04-07T01:57:48.067Z,59.099998
2019-04-07T01:58:03.516Z,59.099998
2019-04-07T01:58:18.962Z,59.099998
2019-04-07T01:58:34.346Z,59.099998
2019-04-07T01:58:49.759Z,59.099998
2019-04-07T01:59:06.225Z,59.099998
2019-04-07T01:59:23.644Z,59.099998
2019-04-07T01:59:38.080Z,59.099998
2019-04-07T01:59:54.494Z,59.099998
2019-04-07T02:00:09.877Z,59.099998
2019-04-07T02:00:25.305Z,59.099998
2019-04-07T02:00:41.767Z,59.099998
2019-04-07T02:00:59.191Z,59.099998
2019-04-07T02:01:14.611Z,59.099998
2019-04-07T02:01:30.010Z,59.099998
2019-04-07T02:01:45.412Z,59.099998
2019-04-07T02:02:00.836Z,59.099998
2019-04-07T02:02:16.239Z,59.099998
2019-04-07T02:02:32.822Z,59.099998
2019-04-07T02:02:48.217Z,59.099998
2019-04-07T02:03:03.683Z,59.099998
2019-04-07T02:03:19.064Z,59.099998
2019-04-07T02:03:34.543Z,59.099998
2019-04-07T02:03:49.983Z,59.099998
2019-04-07T02:04:05.404Z,59.099998
2019-04-07T02:04:20.816Z,59.099998
2019-04-07T02:04:36.218Z,86.300003
2019-04-07T02:04:51.641Z,86.300003
2019-04-07T02:05:07.066Z,86.300003
2019-04-07T02:05:22.507Z,77.199997
2019-04-07T02:05:37.939Z,77.199997
2019-04-07T02:06:02.993Z,87.300003
2019-04-07T02:06:19.257Z,87.300003
2019-04-07T02:06:33.661Z,74.800003
2019-04-07T02:06:49.055Z,74.800003
2019-04-07T02:07:04.462Z,74.800003
2019-04-07T02:07:20.945Z,74.800003
2019-04-07T02:07:36.329Z,74.800003
2019-04-07T02:07:52.747Z,74.800003
2019-04-07T02:08:08.164Z,74.800003
2019-04-07T02:08:23.556Z,74.800003
2019-04-07T02:08:38.947Z,74.800003
2019-04-07T02:08:54.367Z,40.700001
2019-04-07T02:09:09.769Z,40.700001
2019-04-07T02:09:25.159Z,40.700001
2019-04-07T02:09:40.561Z,40.700001
2019-04-07T02:09:55.971Z,40.700001
2019-04-07T02:10:12.340Z,83.300003
2019-04-07T02:10:27.800Z,83.300003
2019-04-07T02:10:43.226Z,93
2019-04-07T02:10:58.605Z,93
2019-04-07T02:11:14.026Z,93
2019-04-07T02:11:31.201Z,95.400002
2019-04-07T02:11:46.640Z,95.400002
2019-04-07T02:12:02.061Z,95.400002
2019-04-07T02:12:18.448Z,95.400002
2019-04-07T02:12:33.859Z,95.400002
2019-04-07T02:12:49.252Z,95.400002
2019-04-07T02:13:04.714Z,95.400002
2019-04-07T02:13:20.119Z,97.599998
2019-04-07T02:13:36.567Z,97.599998
2019-04-07T02:13:51.959Z,97.599998
2019-04-07T02:14:07.375Z,79.900002
2019-04-07T02:14:22.770Z,79.900002
2019-04-07T02:14:38.173Z,74.300003
2019-04-07T02:14:53.595Z,74.300003
2019-04-07T02:15:10.010Z,74.300003
2019-04-07T02:15:25.488Z,80.199997
2019-04-07T02:15:40.931Z,80.199997
2019-04-07T02:15:56.376Z,92.199997
2019-04-07T02:16:11.784Z,92.199997
2019-04-07T02:16:27.229Z,99.099998
2019-04-07T02:16:43.621Z,99.099998
2019-04-07T02:16:58.067Z,107.5
2019-04-07T02:17:13.415Z,114.5
2019-04-07T02:17:28.868Z,114.5
2019-04-07T02:17:44.261Z,118.59999
2019-04-07T02:17:59.626Z,118.59999
2019-04-07T02:18:15.097Z,118.59999
2019-04-07T02:18:31.539Z,118.59999
2019-04-07T02:18:46.884Z,118.59999
2019-04-07T02:19:02.325Z,111.3
2019-04-07T02:19:17.720Z,111.3
2019-04-07T02:19:33.147Z,105.59999
2019-04-07T02:19:48.561Z,105.59999
2019-04-07T02:20:03.982Z,105.59999
2019-04-07T02:20:19.383Z,99.800003
2019-04-07T02:20:34.865Z,99.800003
2019-04-07T02:20:50.263Z,99.800003
2019-04-07T02:21:05.688Z,99.800003
2019-04-07T02:21:21.072Z,99.800003
2019-04-07T02:21:36.458Z,99.800003
2019-04-07T02:21:51.866Z,99.800003
2019-04-07T02:22:07.326Z,99.800003
2019-04-07T02:22:22.741Z,99.800003
2019-04-07T02:22:38.109Z,99.800003
2019-04-07T02:22:53.504Z,99.800003
2019-04-07T02:23:08.969Z,99.800003
2019-04-07T02:23:25.423Z,99.800003
2019-04-07T02:23:40.877Z,99.800003
2019-04-07T02:23:56.320Z,99.800003
2019-04-07T02:24:11.750Z,99.800003
2019-04-07T02:24:27.179Z,99.800003
2019-04-07T02:24:42.601Z,99.800003
2019-04-07T02:24:58.017Z,99.800003
2019-04-07T02:25:13.438Z,99.800003
2019-04-07T02:25:28.886Z,99.800003
2019-04-07T02:25:44.258Z,99.800003
2019-04-07T02:25:59.674Z,99.800003
2019-04-07T02:26:15.096Z,99.800003
2019-04-07T02:26:30.490Z,99.800003
2019-04-07T02:26:45.923Z,99.800003
2019-04-07T02:27:01.318Z,99.800003
2019-04-07T02:27:16.735Z,99.800003
2019-04-07T02:27:32.121Z,99.800003
2019-04-07T02:27:48.376Z,99.800003
2019-04-07T02:28:03.742Z,99.800003
2019-04-07T02:28:19.131Z,99.800003
2019-04-07T02:28:34.535Z,99.800003
2019-04-07T02:28:49.928Z,99.800003
2019-04-07T02:29:05.337Z,99.800003
2019-04-07T02:29:20.722Z,99.800003
2019-04-07T02:29:36.141Z,99.800003
2019-04-07T02:29:51.542Z,99.800003
2019-04-07T02:30:11.021Z,99.800003
2019-04-07T02:30:36.302Z,99.800003
2019-04-07T02:30:57.664Z,99.800003
2019-04-07T02:31:20.026Z,99.800003
2019-04-07T02:31:43.313Z,99.800003
2019-04-07T02:32:04.636Z,99.800003
2019-04-07T02:32:26.098Z,99.800003
2019-04-07T02:32:49.307Z,99.800003
2019-04-07T02:33:13.751Z,99.800003
2019-04-07T02:33:34.114Z,99.800003
2019-04-07T02:33:55.463Z,99.800003
2019-04-07T02:34:18.854Z,99.800003
2019-04-07T02:34:40.475Z,99.800003
2019-04-07T02:35:04.695Z,99.800003
2019-04-07T02:35:27.043Z,99.800003
2019-04-07T02:35:47.329Z,57.400002
2019-04-07T02:36:21.866Z,57.400002
2019-04-07T02:36:39.929Z,57.400002
2019-04-07T02:37:01.320Z,57.400002
2019-04-07T02:37:23.722Z,57.400002
2019-04-07T02:37:45.122Z,57.400002
2019-04-07T02:38:09.396Z,57.400002
2019-04-07T02:38:33.710Z,57.400002
2019-04-07T02:38:55.142Z,57.400002
2019-04-07T02:39:16.463Z,57.400002
2019-04-07T02:39:39.733Z,57.400002
2019-04-07T02:40:01.178Z,57.400002
2019-04-07T02:40:24.390Z,57.400002
2019-04-07T02:40:43.853Z,57.400002
2019-04-07T02:41:07.152Z,71.599998
2019-04-07T02:41:29.542Z,71.599998
2019-04-07T02:41:52.776Z,71.599998
2019-04-07T02:42:16.214Z,71.599998
2019-04-07T02:42:37.635Z,71.599998
2019-04-07T02:42:59.989Z,71.599998
2019-04-07T02:43:22.346Z,71.599998
2019-04-07T02:43:45.650Z,71.599998
2019-04-07T02:44:05.976Z,71.599998
2019-04-07T02:44:28.348Z,71.599998
2019-04-07T02:44:49.737Z,71.599998
2019-04-07T02:45:12.096Z,71.599998
2019-04-07T02:45:33.481Z,71.599998
2019-04-07T02:45:54.847Z,71.599998
2019-04-07T02:46:15.152Z,71.599998
2019-04-07T02:46:37.455Z,71.599998
2019-04-07T02:46:57.791Z,71.599998
2019-04-07T02:47:19.292Z,81.400002
2019-04-07T02:47:42.639Z,81.400002
2019-04-07T02:48:02.004Z,81.400002
2019-04-07T02:48:24.461Z,81.400002
2019-04-07T02:48:45.817Z,81.400002
2019-04-07T02:49:09.195Z,81.400002
2019-04-07T02:49:30.606Z,81.400002
2019-04-07T02:49:51.059Z,81.400002
2019-04-07T02:50:13.461Z,81.400002
2019-04-07T02:50:35.765Z,81.400002
2019-04-07T02:50:58.123Z,81.400002
2019-04-07T02:51:21.114Z,81.400002
2019-04-07T02:51:44.579Z,81.400002
2019-04-07T02:52:06.832Z,81.400002
2019-04-07T02:52:28.369Z,81.400002
2019-04-07T02:52:49.625Z,81.400002
2019-04-07T02:53:11.931Z,81.400002
2019-04-07T02:53:36.082Z,81.400002
2019-04-07T02:53:57.387Z,81.400002
2019-04-07T02:54:19.770Z,81.400002
2019-04-07T02:54:41.203Z,51.299999
2019-04-07T02:55:03.536Z,51.299999
2019-04-07T02:55:24.899Z,51.299999
2019-04-07T02:55:46.282Z,51.299999
2019-04-07T02:56:05.751Z,51.299999
2019-04-07T02:56:26.038Z,51.299999
2019-04-07T02:56:44.450Z,51.299999
2019-04-07T02:57:05.732Z,51.299999
2019-04-07T02:57:25.227Z,85.5
2019-04-07T02:57:45.625Z,85.5
2019-04-07T02:58:06.934Z,85.5
2019-04-07T02:58:28.368Z,85.5
2019-04-07T02:58:50.751Z,85.5
2019-04-07T02:59:11.156Z,85.5
2019-04-07T02:59:34.494Z,85.5
2019-04-07T02:59:56.793Z,85.5
2019-04-07T03:00:19.234Z,85.5
2019-04-07T03:00:42.497Z,85.5
2019-04-07T03:01:02.996Z,85.5
2019-04-07T03:01:24.382Z,85.5
2019-04-07T03:01:47.704Z,85.5
2019-04-07T03:02:09.174Z,85.5
2019-04-07T03:02:30.702Z,85.5
2019-04-07T03:02:52.897Z,85.5
2019-04-07T03:03:15.290Z,85.5
2019-04-07T03:03:37.595Z,85.5
2019-04-07T03:04:00.881Z,85.5
2019-04-07T03:04:21.280Z,85.5
2019-04-07T03:04:42.716Z,85.5
2019-04-07T03:05:03.090Z,85.5
2019-04-07T03:05:25.396Z,85.5
2019-04-07T03:05:46.740Z,85.5
2019-04-07T03:06:08.076Z,85.5
2019-04-07T03:06:43.710Z,85.5
2019-04-07T03:07:01.703Z,85.5
2019-04-07T03:07:24.156Z,85.5
2019-04-07T03:07:45.527Z,85.5
2019-04-07T03:08:06.870Z,85.5
2019-04-07T03:08:28.211Z,85.5
2019-04-07T03:08:48.462Z,85.5
2019-04-07T03:09:09.937Z,85.5
2019-04-07T03:09:31.391Z,85.5
2019-04-07T03:09:52.717Z,85.5
2019-04-07T03:10:14.166Z,85.5
2019-04-07T03:10:35.543Z,85.5
2019-04-07T03:10:57.854Z,85.5
2019-04-07T03:11:19.266Z,52.299999
2019-04-07T03:11:41.581Z,52.299999
2019-04-07T03:12:02.159Z,52.299999
2019-04-07T03:12:24.374Z,52.299999
2019-04-07T03:12:44.654Z,52.299999
2019-04-07T03:13:04.020Z,52.299999
2019-04-07T03:13:27.328Z,47.299999
2019-04-07T03:13:49.701Z,47.299999
2019-04-07T03:14:10.119Z,47.299999
2019-04-07T03:14:30.566Z,47.299999
2019-04-07T03:14:51.064Z,47.299999
2019-04-07T03:15:14.267Z,47.299999
2019-04-07T03:15:36.613Z,47.299999
2019-04-07T03:15:58.934Z,47.299999
2019-04-07T03:16:20.411Z,47.299999
2019-04-07T03:16:40.894Z,47.299999
2019-04-07T03:17:03.211Z,47.299999
2019-04-07T03:17:26.541Z,47.299999
2019-04-07T03:17:48.901Z,47.299999
2019-04-07T03:18:11.166Z,47.299999
2019-04-07T03:18:34.756Z,47.299999
2019-04-07T03:18:57.026Z,47.299999
2019-04-07T03:19:20.308Z,62.400002
2019-04-07T03:19:44.551Z,62.400002
2019-04-07T03:20:07.913Z,62.400002
2019-04-07T03:20:28.480Z,62.400002
2019-04-07T03:20:50.677Z,62.400002
2019-04-07T03:21:14.034Z,62.400002
2019-04-07T03:21:37.382Z,62.400002
2019-04-07T03:21:58.705Z,62.400002
2019-04-07T03:22:21.544Z,62.400002